KTEXKAIB

Guest
Details From KTEX - Telluride Rgnl
To KAIB - HOPKINS FLD
Flight Number -
Tags generated
Created
Modified
Stats Distance 35 nm / 65 km
Max Altitude 0 ft / 0 m
Waypoints 2
Social Downloads 0
Likes 0
Share VATSIM

Download

Looking for another format? Having issues loading an existing format? Contact us
Advertisement - Login to hide

Notes

Basic altitude profile: - Ascent Rate: 1300ft/min - Ascent Speed: 120kts - Cruise Altitude: 35000ft - Cruise Speed: 160kts - Descent Rate: 1500ft/min - Descent Speed: 250kts Options: - Use NATs: no - Use PACOTS: no - Use low airways: no - Use high airways: no

Route

KTEX KAIB

ID Type Via Altitude Latitude Longitude Leg Dist Tot Dist Heading (true) Name
O KTEX APT - 0 ft / 0 m 37.95381˚ -107.90874˚ - 0 nm - Telluride Rgnl
O KAIB APT - 0 ft / 0 m 38.23875˚ -108.56321˚ 35 nm 35 nm 299° / 299° HOPKINS FLD

Altitude Profile

Advertisement - Login to hide

KTEX

Details ICAO KTEX (TEX)
Name Telluride Rgnl
Region United States
Timezone America/Denver (UTC-6.0)
Stats Elevation 9,078 ft / 2,767 m (AMSL)
Location 37.953812° -107.908742°
Runways 1
Magnetic Variation 9.375° E

METAR

KTEX 260415Z AUTO 10006KT 10SM CLR 16/M13 A3032 RMK AO2 T01551128

Decode

TAF

TAF KTEX 252320Z 2600/2624 15012G20KT P6SM SKC FM260300 16005KT P6SM SKC FM261600 14008G15KT P6SM FEW250 FM262100 19015G25KT P6SM FEW250

Decode

Departure Runways

ID Width Length Bearing (true) Bearing (mag) Surface Threshold Offset Overrun Length
09 98 ft / 30 m 7,095 ft / 2,163 m 104.96° 95.58° Asphalt 200 ft / 61 m 400 ft / 122 m
27 98 ft / 30 m 7,095 ft / 2,163 m 284.98° 275.60° Asphalt 200 ft / 61 m 400 ft / 122 m

KAIB

Details ICAO KAIB
Name HOPKINS FLD
Region United States
Timezone America/Denver (UTC-6.0)
Stats Elevation 5,940 ft / 1,811 m (AMSL)
Location 38.238751° -108.563215°
Runways 2
Magnetic Variation 9.692° E

METAR

KAIB 260415Z AUTO 10010KT 10SM CLR 18/M14 A3008 RMK AO2

Decode

TAF

Not found

Destination Runways

ID Width Length Bearing (true) Bearing (mag) Surface Threshold Offset Overrun Length
05 75 ft / 23 m 4,594 ft / 1,400 m 58.42° 48.73° Asphalt 0 ft / 0 m 0 ft / 0 m
11 80 ft / 24 m 3,995 ft / 1,218 m 124.02° 114.33° Dirt 0 ft / 0 m 0 ft / 0 m
23 75 ft / 23 m 4,594 ft / 1,400 m 238.43° 228.74° Asphalt 0 ft / 0 m 0 ft / 0 m
29 80 ft / 24 m 3,995 ft / 1,218 m 304.02° 294.33° Dirt 0 ft / 0 m 0 ft / 0 m